Terminal Aerodrome Forecast
Issued by NWS Shreveport, LA

Home | Current Version | Previous Version | Text Only | Print | Product List | Glossary On
Versions: 1 2 3 4 5 6 7 8 9 10 11 12 13 14 15 16 17 18 19 20 21 22 23 24 25
000
FTUS44 KSHV 290531
TAFLFK
TAF
KLFK 290531Z 2906/3006 14013G20KT 6SM HZ BKN020 OVC025
      TEMPO 2907/2911 OVC015
     FM291300 17018G30KT P6SM BKN025
      TEMPO 2917/2921 SCT035
     FM292100 16018G30KT P6SM VCTS BKN040CB=

USA.gov is the U.S. government's official web portal to all federal, state and local government web resources and services.